sensor_id;sensor_type;location;lat;lon;timestamp;temperature;humidity
5792;DHT22;2922;53.482;10.006;2023-02-02T00:01:26;5.80;99.90
5792;DHT22;2922;53.482;10.006;2023-02-02T00:03:51;5.80;99.90
5792;DHT22;2922;53.482;10.006;2023-02-02T00:06:19;5.80;99.90
5792;DHT22;2922;53.482;10.006;2023-02-02T00:08:44;5.80;99.90
5792;DHT22;2922;53.482;10.006;2023-02-02T00:11:10;5.80;99.90
5792;DHT22;2922;53.482;10.006;2023-02-02T00:13:37;5.80;99.90
5792;DHT22;2922;53.482;10.006;2023-02-02T00:16:34;5.80;99.90
5792;DHT22;2922;53.482;10.006;2023-02-02T00:19:03;5.80;99.90
5792;DHT22;2922;53.482;10.006;2023-02-02T00:21:29;5.80;99.90
5792;DHT22;2922;53.482;10.006;2023-02-02T00:23:55;5.80;99.90
5792;DHT22;2922;53.482;10.006;2023-02-02T00:26:21;5.80;99.90
5792;DHT22;2922;53.482;10.006;2023-02-02T00:28:46;5.70;99.90
5792;DHT22;2922;53.482;10.006;2023-02-02T00:31:12;5.80;99.90
5792;DHT22;2922;53.482;10.006;2023-02-02T00:33:38;5.80;99.90
5792;DHT22;2922;53.482;10.006;2023-02-02T00:36:04;5.80;99.90
5792;DHT22;2922;53.482;10.006;2023-02-02T00:38:30;5.80;99.90
5792;DHT22;2922;53.482;10.006;2023-02-02T00:40:56;5.80;99.90
5792;DHT22;2922;53.482;10.006;2023-02-02T00:43:21;5.70;99.90
5792;DHT22;2922;53.482;10.006;2023-02-02T00:45:48;5.60;99.90
5792;DHT22;2922;53.482;10.006;2023-02-02T00:48:14;5.60;99.90
5792;DHT22;2922;53.482;10.006;2023-02-02T00:50:39;5.60;99.90
5792;DHT22;2922;53.482;10.006;2023-02-02T00:53:05;5.50;99.90
5792;DHT22;2922;53.482;10.006;2023-02-02T00:55:30;5.60;99.90
5792;DHT22;2922;53.482;10.006;2023-02-02T00:57:56;5.50;99.90
5792;DHT22;2922;53.482;10.006;2023-02-02T01:00:24;5.50;99.90
5792;DHT22;2922;53.482;10.006;2023-02-02T01:02:51;5.50;99.90
5792;DHT22;2922;53.482;10.006;2023-02-02T01:05:17;5.50;99.90
5792;DHT22;2922;53.482;10.006;2023-02-02T01:07:43;5.50;99.90
5792;DHT22;2922;53.482;10.006;2023-02-02T01:10:17;5.50;99.90
5792;DHT22;2922;53.482;10.006;2023-02-02T01:12:43;5.60;99.90
5792;DHT22;2922;53.482;10.006;2023-02-02T01:15:10;5.50;99.90
5792;DHT22;2922;53.482;10.006;2023-02-02T01:17:36;5.60;99.90
5792;DHT22;2922;53.482;10.006;2023-02-02T01:20:03;5.50;99.90
5792;DHT22;2922;53.482;10.006;2023-02-02T01:22:28;5.50;99.90
5792;DHT22;2922;53.482;10.006;2023-02-02T01:24:54;5.50;99.90
5792;DHT22;2922;53.482;10.006;2023-02-02T01:27:19;5.50;99.90
5792;DHT22;2922;53.482;10.006;2023-02-02T01:29:45;5.50;99.90
5792;DHT22;2922;53.482;10.006;2023-02-02T01:32:11;5.40;99.90
5792;DHT22;2922;53.482;10.006;2023-02-02T01:34:36;5.40;99.90
5792;DHT22;2922;53.482;10.006;2023-02-02T01:37:09;5.50;99.90
5792;DHT22;2922;53.482;10.006;2023-02-02T01:39:35;5.50;99.90
5792;DHT22;2922;53.482;10.006;2023-02-02T01:42:01;5.50;99.90
5792;DHT22;2922;53.482;10.006;2023-02-02T01:45:04;5.50;99.90
5792;DHT22;2922;53.482;10.006;2023-02-02T01:47:33;5.50;99.90
5792;DHT22;2922;53.482;10.006;2023-02-02T01:50:00;5.60;99.90
5792;DHT22;2922;53.482;10.006;2023-02-02T01:52:28;5.60;99.90
5792;DHT22;2922;53.482;10.006;2023-02-02T01:54:58;5.60;99.90
5792;DHT22;2922;53.482;10.006;2023-02-02T01:57:50;5.60;99.90
5792;DHT22;2922;53.482;10.006;2023-02-02T02:00:17;5.60;99.90
5792;DHT22;2922;53.482;10.006;2023-02-02T02:02:49;5.60;99.90
5792;DHT22;2922;53.482;10.006;2023-02-02T02:05:23;5.60;99.90
5792;DHT22;2922;53.482;10.006;2023-02-02T02:07:52;5.60;99.90
5792;DHT22;2922;53.482;10.006;2023-02-02T02:10:18;5.50;99.90
5792;DHT22;2922;53.482;10.006;2023-02-02T02:12:46;5.50;99.90
5792;DHT22;2922;53.482;10.006;2023-02-02T02:15:12;5.50;99.90
5792;DHT22;2922;53.482;10.006;2023-02-02T02:18:07;5.50;99.90
5792;DHT22;2922;53.482;10.006;2023-02-02T02:27:27;5.40;99.90
5792;DHT22;2922;53.482;10.006;2023-02-02T02:33:05;5.40;99.90
5792;DHT22;2922;53.482;10.006;2023-02-02T02:35:51;5.40;99.90
5792;DHT22;2922;53.482;10.006;2023-02-02T02:39:01;5.40;99.90
5792;DHT22;2922;53.482;10.006;2023-02-02T02:41:32;5.40;99.90
5792;DHT22;2922;53.482;10.006;2023-02-02T02:44:03;5.40;99.90
5792;DHT22;2922;53.482;10.006;2023-02-02T02:46:30;5.40;99.90
5792;DHT22;2922;53.482;10.006;2023-02-02T02:49:00;5.40;99.90
5792;DHT22;2922;53.482;10.006;2023-02-02T02:54:19;5.40;99.90
5792;DHT22;2922;53.482;10.006;2023-02-02T02:59:29;5.40;99.90
5792;DHT22;2922;53.482;10.006;2023-02-02T03:02:17;5.40;99.90
5792;DHT22;2922;53.482;10.006;2023-02-02T03:04:51;5.40;99.90
5792;DHT22;2922;53.482;10.006;2023-02-02T03:07:28;5.40;99.90
5792;DHT22;2922;53.482;10.006;2023-02-02T03:09:58;5.50;99.90
5792;DHT22;2922;53.482;10.006;2023-02-02T03:12:25;5.50;99.90
5792;DHT22;2922;53.482;10.006;2023-02-02T03:14:51;5.50;99.90
5792;DHT22;2922;53.482;10.006;2023-02-02T03:17:16;5.50;99.90
5792;DHT22;2922;53.482;10.006;2023-02-02T03:19:42;5.50;99.90
5792;DHT22;2922;53.482;10.006;2023-02-02T03:22:07;5.50;99.90
5792;DHT22;2922;53.482;10.006;2023-02-02T03:24:33;5.40;99.90
5792;DHT22;2922;53.482;10.006;2023-02-02T03:26:59;5.40;99.90
5792;DHT22;2922;53.482;10.006;2023-02-02T03:29:24;5.40;99.90
5792;DHT22;2922;53.482;10.006;2023-02-02T03:31:50;5.40;99.90
5792;DHT22;2922;53.482;10.006;2023-02-02T03:34:15;5.40;99.90
5792;DHT22;2922;53.482;10.006;2023-02-02T03:36:41;5.40;99.90
5792;DHT22;2922;53.482;10.006;2023-02-02T03:39:06;5.40;99.90
5792;DHT22;2922;53.482;10.006;2023-02-02T09:37:23;6.30;99.90
5792;DHT22;2922;53.482;10.006;2023-02-02T09:39:49;6.50;99.90
5792;DHT22;2922;53.482;10.006;2023-02-02T09:42:33;6.50;99.90
5792;DHT22;2922;53.482;10.006;2023-02-02T09:45:10;6.40;99.90
5792;DHT22;2922;53.482;10.006;2023-02-02T09:48:00;6.40;99.90
5792;DHT22;2922;53.482;10.006;2023-02-02T11:43:36;7.70;99.90
5792;DHT22;2922;53.482;10.006;2023-02-02T11:46:26;7.70;99.90
5792;DHT22;2922;53.482;10.006;2023-02-02T11:49:15;7.70;99.90
5792;DHT22;2922;53.482;10.006;2023-02-02T11:51:43;7.80;99.90
5792;DHT22;2922;53.482;10.006;2023-02-02T11:54:31;7.90;99.90
5792;DHT22;2922;53.482;10.006;2023-02-02T11:57:03;7.80;99.90
5792;DHT22;2922;53.482;10.006;2023-02-02T12:04:49;7.60;99.90
5792;DHT22;2922;53.482;10.006;2023-02-02T12:07:28;7.60;99.90
5792;DHT22;2922;53.482;10.006;2023-02-02T12:09:59;7.50;99.90
5792;DHT22;2922;53.482;10.006;2023-02-02T12:12:49;7.50;99.90
5792;DHT22;2922;53.482;10.006;2023-02-02T12:15:33;7.40;99.90
5792;DHT22;2922;53.482;10.006;2023-02-02T12:29:04;7.60;99.90
5792;DHT22;2922;53.482;10.006;2023-02-02T12:45:00;7.60;99.90
5792;DHT22;2922;53.482;10.006;2023-02-02T13:08:26;8.00;99.90
5792;DHT22;2922;53.482;10.006;2023-02-02T13:11:23;8.10;99.90
5792;DHT22;2922;53.482;10.006;2023-02-02T13:14:25;8.20;99.90
5792;DHT22;2922;53.482;10.006;2023-02-02T13:55:52;8.10;99.90
5792;DHT22;2922;53.482;10.006;2023-02-02T13:58:39;8.10;99.90
5792;DHT22;2922;53.482;10.006;2023-02-02T14:01:10;8.10;99.90
5792;DHT22;2922;53.482;10.006;2023-02-02T14:03:40;8.10;99.90
5792;DHT22;2922;53.482;10.006;2023-02-02T14:06:09;8.20;99.90
5792;DHT22;2922;53.482;10.006;2023-02-02T14:08:36;8.20;99.90
5792;DHT22;2922;53.482;10.006;2023-02-02T14:11:05;8.20;99.90
5792;DHT22;2922;53.482;10.006;2023-02-02T14:13:41;8.10;99.90
5792;DHT22;2922;53.482;10.006;2023-02-02T14:18:59;8.00;99.90
5792;DHT22;2922;53.482;10.006;2023-02-02T14:24:45;8.00;99.90
5792;DHT22;2922;53.482;10.006;2023-02-02T14:26:47;7.90;99.90
5792;DHT22;2922;53.482;10.006;2023-02-02T14:31:59;7.80;99.90
5792;DHT22;2922;53.482;10.006;2023-02-02T14:48:40;7.50;99.90
5792;DHT22;2922;53.482;10.006;2023-02-02T14:51:16;7.50;99.90
5792;DHT22;2922;53.482;10.006;2023-02-02T14:54:04;7.40;99.90
5792;DHT22;2922;53.482;10.006;2023-02-02T14:56:47;7.40;99.90
5792;DHT22;2922;53.482;10.006;2023-02-02T14:59:34;7.30;99.90
5792;DHT22;2922;53.482;10.006;2023-02-02T15:02:19;7.30;99.90
5792;DHT22;2922;53.482;10.006;2023-02-02T15:04:47;7.30;99.90
5792;DHT22;2922;53.482;10.006;2023-02-02T15:07:36;7.20;99.90
5792;DHT22;2922;53.482;10.006;2023-02-02T15:13:28;7.20;99.90
5792;DHT22;2922;53.482;10.006;2023-02-02T15:16:22;7.20;99.90
5792;DHT22;2922;53.482;10.006;2023-02-02T15:18:56;7.10;99.90
5792;DHT22;2922;53.482;10.006;2023-02-02T15:21:25;7.10;99.90
5792;DHT22;2922;53.482;10.006;2023-02-02T15:23:52;7.10;99.90
5792;DHT22;2922;53.482;10.006;2023-02-02T15:26:25;7.00;99.90
5792;DHT22;2922;53.482;10.006;2023-02-02T15:28:59;7.00;99.90
5792;DHT22;2922;53.482;10.006;2023-02-02T15:31:35;7.00;99.90
5792;DHT22;2922;53.482;10.006;2023-02-02T15:36:57;6.90;99.90
5792;DHT22;2922;53.482;10.006;2023-02-02T15:39:40;6.90;99.90
5792;DHT22;2922;53.482;10.006;2023-02-02T15:42:17;6.90;99.90
5792;DHT22;2922;53.482;10.006;2023-02-02T15:45:02;6.80;99.90
5792;DHT22;2922;53.482;10.006;2023-02-02T15:47:32;6.70;99.90
5792;DHT22;2922;53.482;10.006;2023-02-02T15:49:59;6.70;99.90
5792;DHT22;2922;53.482;10.006;2023-02-02T15:52:28;6.70;99.90
5792;DHT22;2922;53.482;10.006;2023-02-02T15:54:58;6.60;99.90
5792;DHT22;2922;53.482;10.006;2023-02-02T15:57:33;6.60;99.90
5792;DHT22;2922;53.482;10.006;2023-02-02T16:00:00;6.50;99.90
5792;DHT22;2922;53.482;10.006;2023-02-02T16:02:33;6.50;99.90
5792;DHT22;2922;53.482;10.006;2023-02-02T16:05:00;6.50;99.90
5792;DHT22;2922;53.482;10.006;2023-02-02T16:07:31;6.40;99.90
5792;DHT22;2922;53.482;10.006;2023-02-02T16:10:03;6.40;99.90
5792;DHT22;2922;53.482;10.006;2023-02-02T16:12:30;6.40;99.90
5792;DHT22;2922;53.482;10.006;2023-02-02T16:14:56;6.30;99.90
5792;DHT22;2922;53.482;10.006;2023-02-02T16:17:31;6.30;99.90
5792;DHT22;2922;53.482;10.006;2023-02-02T16:20:17;6.30;99.90
5792;DHT22;2922;53.482;10.006;2023-02-02T16:22:44;6.20;99.90
5792;DHT22;2922;53.482;10.006;2023-02-02T16:25:16;6.20;99.90
5792;DHT22;2922;53.482;10.006;2023-02-02T16:27:45;6.20;99.90
5792;DHT22;2922;53.482;10.006;2023-02-02T16:30:25;6.20;99.90
5792;DHT22;2922;53.482;10.006;2023-02-02T16:32:51;6.10;99.90
5792;DHT22;2922;53.482;10.006;2023-02-02T16:35:30;6.10;99.90
5792;DHT22;2922;53.482;10.006;2023-02-02T16:38:35;6.10;99.90
5792;DHT22;2922;53.482;10.006;2023-02-02T16:43:28;6.00;99.90
5792;DHT22;2922;53.482;10.006;2023-02-02T16:46:14;6.00;99.90
5792;DHT22;2922;53.482;10.006;2023-02-02T16:48:43;5.90;99.90
5792;DHT22;2922;53.482;10.006;2023-02-02T16:53:47;5.90;99.90
5792;DHT22;2922;53.482;10.006;2023-02-02T16:56:25;5.80;99.90
5792;DHT22;2922;53.482;10.006;2023-02-02T16:58:53;5.80;99.90
5792;DHT22;2922;53.482;10.006;2023-02-02T17:01:34;5.70;99.90
5792;DHT22;2922;53.482;10.006;2023-02-02T17:04:01;5.70;99.90
5792;DHT22;2922;53.482;10.006;2023-02-02T17:06:29;5.70;99.90
5792;DHT22;2922;53.482;10.006;2023-02-02T17:08:56;5.60;99.90
5792;DHT22;2922;53.482;10.006;2023-02-02T17:11:25;5.60;99.90
5792;DHT22;2922;53.482;10.006;2023-02-02T17:13:52;5.50;99.90
5792;DHT22;2922;53.482;10.006;2023-02-02T17:16:21;5.50;99.90
5792;DHT22;2922;53.482;10.006;2023-02-02T17:18:47;5.40;99.90
5792;DHT22;2922;53.482;10.006;2023-02-02T17:21:19;5.40;99.90
5792;DHT22;2922;53.482;10.006;2023-02-02T17:23:46;5.40;99.90
5792;DHT22;2922;53.482;10.006;2023-02-02T17:26:13;5.30;99.90
5792;DHT22;2922;53.482;10.006;2023-02-02T17:28:43;5.30;99.90
5792;DHT22;2922;53.482;10.006;2023-02-02T17:31:12;5.30;99.90
5792;DHT22;2922;53.482;10.006;2023-02-02T17:33:38;5.30;99.90
5792;DHT22;2922;53.482;10.006;2023-02-02T17:36:04;5.20;99.90
5792;DHT22;2922;53.482;10.006;2023-02-02T17:38:30;5.20;99.90
5792;DHT22;2922;53.482;10.006;2023-02-02T17:41:01;5.20;99.90
5792;DHT22;2922;53.482;10.006;2023-02-02T17:43:28;5.10;99.90
5792;DHT22;2922;53.482;10.006;2023-02-02T17:45:54;5.20;99.90
5792;DHT22;2922;53.482;10.006;2023-02-02T17:48:19;5.20;99.90
5792;DHT22;2922;53.482;10.006;2023-02-02T17:50:45;5.10;99.90
5792;DHT22;2922;53.482;10.006;2023-02-02T17:53:14;5.10;99.90
5792;DHT22;2922;53.482;10.006;2023-02-02T17:55:42;5.00;99.90
5792;DHT22;2922;53.482;10.006;2023-02-02T17:58:09;5.00;99.90
5792;DHT22;2922;53.482;10.006;2023-02-02T18:00:38;5.10;99.90
5792;DHT22;2922;53.482;10.006;2023-02-02T18:03:12;5.00;99.90
5792;DHT22;2922;53.482;10.006;2023-02-02T18:05:38;5.00;99.90
5792;DHT22;2922;53.482;10.006;2023-02-02T18:08:04;5.00;99.90
5792;DHT22;2922;53.482;10.006;2023-02-02T18:10:29;5.00;99.90
5792;DHT22;2922;53.482;10.006;2023-02-02T18:12:56;5.00;99.90
5792;DHT22;2922;53.482;10.006;2023-02-02T18:15:21;5.00;99.90
5792;DHT22;2922;53.482;10.006;2023-02-02T18:17:47;5.00;99.90
5792;DHT22;2922;53.482;10.006;2023-02-02T18:20:14;5.00;99.90
5792;DHT22;2922;53.482;10.006;2023-02-02T18:22:41;5.00;99.90
5792;DHT22;2922;53.482;10.006;2023-02-02T18:25:11;5.00;99.90
5792;DHT22;2922;53.482;10.006;2023-02-02T18:27:37;5.00;99.90
5792;DHT22;2922;53.482;10.006;2023-02-02T18:30:03;5.00;99.90
5792;DHT22;2922;53.482;10.006;2023-02-02T18:32:28;5.00;99.90
5792;DHT22;2922;53.482;10.006;2023-02-02T18:34:54;5.00;99.90
5792;DHT22;2922;53.482;10.006;2023-02-02T18:37:23;5.00;99.90
5792;DHT22;2922;53.482;10.006;2023-02-02T18:39:52;5.00;99.90
5792;DHT22;2922;53.482;10.006;2023-02-02T18:42:18;5.00;99.90
5792;DHT22;2922;53.482;10.006;2023-02-02T18:44:43;5.00;99.90
5792;DHT22;2922;53.482;10.006;2023-02-02T18:47:09;5.00;99.90
5792;DHT22;2922;53.482;10.006;2023-02-02T18:49:35;5.10;99.90
5792;DHT22;2922;53.482;10.006;2023-02-02T18:52:00;5.10;99.90
5792;DHT22;2922;53.482;10.006;2023-02-02T18:54:27;5.10;99.90
5792;DHT22;2922;53.482;10.006;2023-02-02T18:56:52;5.00;99.90
5792;DHT22;2922;53.482;10.006;2023-02-02T18:59:18;5.10;99.90
5792;DHT22;2922;53.482;10.006;2023-02-02T19:01:43;5.10;99.90
5792;DHT22;2922;53.482;10.006;2023-02-02T19:04:09;5.00;99.90
5792;DHT22;2922;53.482;10.006;2023-02-02T19:06:35;5.10;99.90
5792;DHT22;2922;53.482;10.006;2023-02-02T19:09:19;5.10;99.90
5792;DHT22;2922;53.482;10.006;2023-02-02T19:11:48;5.10;99.90
5792;DHT22;2922;53.482;10.006;2023-02-02T19:16:43;5.10;99.90
5792;DHT22;2922;53.482;10.006;2023-02-02T19:19:30;5.10;99.90
5792;DHT22;2922;53.482;10.006;2023-02-02T19:21:59;5.10;99.90
5792;DHT22;2922;53.482;10.006;2023-02-02T19:24:33;5.10;99.90
5792;DHT22;2922;53.482;10.006;2023-02-02T19:27:00;5.10;99.90
5792;DHT22;2922;53.482;10.006;2023-02-02T19:29:30;5.10;99.90
5792;DHT22;2922;53.482;10.006;2023-02-02T19:32:01;5.10;99.90
5792;DHT22;2922;53.482;10.006;2023-02-02T19:34:29;5.10;99.90
5792;DHT22;2922;53.482;10.006;2023-02-02T19:36:57;5.10;99.90
5792;DHT22;2922;53.482;10.006;2023-02-02T19:39:29;5.20;99.90
5792;DHT22;2922;53.482;10.006;2023-02-02T19:41:59;5.20;99.90
5792;DHT22;2922;53.482;10.006;2023-02-02T19:44:30;5.20;99.90
5792;DHT22;2922;53.482;10.006;2023-02-02T19:46:56;5.20;99.90
5792;DHT22;2922;53.482;10.006;2023-02-02T19:49:32;5.20;99.90
5792;DHT22;2922;53.482;10.006;2023-02-02T19:51:59;5.20;99.90
5792;DHT22;2922;53.482;10.006;2023-02-02T19:54:35;5.20;99.90
5792;DHT22;2922;53.482;10.006;2023-02-02T19:57:33;5.30;99.90
5792;DHT22;2922;53.482;10.006;2023-02-02T20:00:28;5.30;99.90
5792;DHT22;2922;53.482;10.006;2023-02-02T20:05:27;5.40;99.90
5792;DHT22;2922;53.482;10.006;2023-02-02T20:07:59;5.40;99.90
5792;DHT22;2922;53.482;10.006;2023-02-02T20:10:36;5.40;99.90
5792;DHT22;2922;53.482;10.006;2023-02-02T20:13:20;5.40;99.90
5792;DHT22;2922;53.482;10.006;2023-02-02T20:15:48;5.40;99.90
5792;DHT22;2922;53.482;10.006;2023-02-02T20:18:44;5.40;99.90
5792;DHT22;2922;53.482;10.006;2023-02-02T20:23:47;5.40;99.90
5792;DHT22;2922;53.482;10.006;2023-02-02T20:26:22;5.40;99.90
5792;DHT22;2922;53.482;10.006;2023-02-02T20:28:51;5.40;99.90
5792;DHT22;2922;53.482;10.006;2023-02-02T20:31:20;5.40;99.90
5792;DHT22;2922;53.482;10.006;2023-02-02T20:33:49;5.40;99.90
5792;DHT22;2922;53.482;10.006;2023-02-02T20:38:52;5.40;99.90
5792;DHT22;2922;53.482;10.006;2023-02-02T20:41:18;5.40;99.90
5792;DHT22;2922;53.482;10.006;2023-02-02T20:43:44;5.30;99.90
5792;DHT22;2922;53.482;10.006;2023-02-02T20:46:11;5.40;99.90
5792;DHT22;2922;53.482;10.006;2023-02-02T20:48:37;5.30;99.90
5792;DHT22;2922;53.482;10.006;2023-02-02T20:51:03;5.30;99.90
5792;DHT22;2922;53.482;10.006;2023-02-02T20:53:29;5.30;99.90
5792;DHT22;2922;53.482;10.006;2023-02-02T20:55:54;5.30;99.90
5792;DHT22;2922;53.482;10.006;2023-02-02T20:58:23;5.30;99.90
5792;DHT22;2922;53.482;10.006;2023-02-02T21:00:49;5.30;99.90
5792;DHT22;2922;53.482;10.006;2023-02-02T21:03:15;5.30;99.90
5792;DHT22;2922;53.482;10.006;2023-02-02T21:05:40;5.30;99.90
5792;DHT22;2922;53.482;10.006;2023-02-02T21:08:06;5.40;99.90
5792;DHT22;2922;53.482;10.006;2023-02-02T21:10:32;5.30;99.90
5792;DHT22;2922;53.482;10.006;2023-02-02T21:12:58;5.30;99.90
5792;DHT22;2922;53.482;10.006;2023-02-02T21:15:24;5.30;99.90
5792;DHT22;2922;53.482;10.006;2023-02-02T21:17:51;5.20;99.90
5792;DHT22;2922;53.482;10.006;2023-02-02T21:20:16;5.20;99.90
5792;DHT22;2922;53.482;10.006;2023-02-02T21:22:42;5.20;99.90
5792;DHT22;2922;53.482;10.006;2023-02-02T21:25:09;5.20;99.90
5792;DHT22;2922;53.482;10.006;2023-02-02T21:27:35;5.20;99.90
5792;DHT22;2922;53.482;10.006;2023-02-02T21:30:02;5.20;99.90
5792;DHT22;2922;53.482;10.006;2023-02-02T21:32:28;5.20;99.90
5792;DHT22;2922;53.482;10.006;2023-02-02T21:34:54;5.10;99.90
5792;DHT22;2922;53.482;10.006;2023-02-02T21:37:19;5.10;99.90
5792;DHT22;2922;53.482;10.006;2023-02-02T21:39:45;5.10;99.90
5792;DHT22;2922;53.482;10.006;2023-02-02T21:42:16;5.10;99.90
5792;DHT22;2922;53.482;10.006;2023-02-02T21:44:58;5.20;99.90
5792;DHT22;2922;53.482;10.006;2023-02-02T21:47:34;5.10;99.90
5792;DHT22;2922;53.482;10.006;2023-02-02T21:50:30;5.10;99.90
5792;DHT22;2922;53.482;10.006;2023-02-02T21:53:20;5.10;99.90
5792;DHT22;2922;53.482;10.006;2023-02-02T21:55:51;5.10;99.90
5792;DHT22;2922;53.482;10.006;2023-02-02T21:58:36;5.10;99.90
5792;DHT22;2922;53.482;10.006;2023-02-02T22:01:28;5.10;99.90
5792;DHT22;2922;53.482;10.006;2023-02-02T22:03:57;5.10;99.90
5792;DHT22;2922;53.482;10.006;2023-02-02T22:06:34;5.00;99.90
5792;DHT22;2922;53.482;10.006;2023-02-02T22:11:44;5.00;99.90
5792;DHT22;2922;53.482;10.006;2023-02-02T22:16:45;5.00;99.90
5792;DHT22;2922;53.482;10.006;2023-02-02T22:22:23;4.90;99.90
5792;DHT22;2922;53.482;10.006;2023-02-02T22:24:57;4.90;99.90
5792;DHT22;2922;53.482;10.006;2023-02-02T22:27:26;4.90;99.90
5792;DHT22;2922;53.482;10.006;2023-02-02T22:30:55;4.90;99.90
5792;DHT22;2922;53.482;10.006;2023-02-02T22:32:55;4.90;99.90
5792;DHT22;2922;53.482;10.006;2023-02-02T22:35:21;4.90;99.90
5792;DHT22;2922;53.482;10.006;2023-02-02T22:37:47;4.90;99.90
5792;DHT22;2922;53.482;10.006;2023-02-02T22:40:12;4.90;99.90
5792;DHT22;2922;53.482;10.006;2023-02-02T22:42:38;4.90;99.90
5792;DHT22;2922;53.482;10.006;2023-02-02T22:45:04;5.00;99.90
5792;DHT22;2922;53.482;10.006;2023-02-02T22:47:30;5.00;99.90
5792;DHT22;2922;53.482;10.006;2023-02-02T22:49:56;5.00;99.90
5792;DHT22;2922;53.482;10.006;2023-02-02T22:52:22;5.00;99.90
5792;DHT22;2922;53.482;10.006;2023-02-02T22:54:47;5.00;99.90
5792;DHT22;2922;53.482;10.006;2023-02-02T22:57:13;5.00;99.90
5792;DHT22;2922;53.482;10.006;2023-02-02T22:59:38;5.00;99.90
5792;DHT22;2922;53.482;10.006;2023-02-02T23:02:04;5.00;99.90
5792;DHT22;2922;53.482;10.006;2023-02-02T23:04:29;5.00;99.90
5792;DHT22;2922;53.482;10.006;2023-02-02T23:06:55;5.00;99.90
5792;DHT22;2922;53.482;10.006;2023-02-02T23:09:20;5.00;99.90
5792;DHT22;2922;53.482;10.006;2023-02-02T23:11:46;5.00;99.90
5792;DHT22;2922;53.482;10.006;2023-02-02T23:14:12;5.00;99.90
5792;DHT22;2922;53.482;10.006;2023-02-02T23:16:37;5.00;99.90
5792;DHT22;2922;53.482;10.006;2023-02-02T23:19:03;5.10;99.90
5792;DHT22;2922;53.482;10.006;2023-02-02T23:21:29;5.10;99.90
5792;DHT22;2922;53.482;10.006;2023-02-02T23:23:54;5.20;99.90
5792;DHT22;2922;53.482;10.006;2023-02-02T23:26:21;5.10;99.90
5792;DHT22;2922;53.482;10.006;2023-02-02T23:28:46;5.10;99.90
5792;DHT22;2922;53.482;10.006;2023-02-02T23:31:12;5.10;99.90
5792;DHT22;2922;53.482;10.006;2023-02-02T23:33:38;5.10;99.90
5792;DHT22;2922;53.482;10.006;2023-02-02T23:36:06;5.20;99.90
5792;DHT22;2922;53.482;10.006;2023-02-02T23:38:32;5.20;99.90
5792;DHT22;2922;53.482;10.006;2023-02-02T23:41:00;5.20;99.90
5792;DHT22;2922;53.482;10.006;2023-02-02T23:43:26;5.20;99.90
5792;DHT22;2922;53.482;10.006;2023-02-02T23:45:52;5.20;99.90
5792;DHT22;2922;53.482;10.006;2023-02-02T23:48:18;5.30;99.90
5792;DHT22;2922;53.482;10.006;2023-02-02T23:50:44;5.30;99.90
5792;DHT22;2922;53.482;10.006;2023-02-02T23:53:11;5.30;99.90
5792;DHT22;2922;53.482;10.006;2023-02-02T23:55:39;5.30;99.90
5792;DHT22;2922;53.482;10.006;2023-02-02T23:58:06;5.40;99.90
